Terminal Aerodrome Forecast
Issued by NWS

Home | Current Version | Previous Version | Text Only | Print | Product List | Glossary On
Versions: 1 2 3 4 5 6 7 8 9 10 11 12 13 14 15 16 17 18 19 20 21 22 23 24 25 26 27 28 29 30 31 32 33 34 35 36 37 38 39 40 41 42
000
FTUS45 KBOU 251735
TAFBJC
TAF
KBJC 251735Z 2518/2618 34012KT P6SM SCT070 BKN100 BKN120
     FM251900 36010KT P6SM VCSH SCT025 BKN060 OVC100
     FM252000 02012G20KT 3SM -SN SCT012 OVC020
      TEMPO 2521/2524 1SM -SN BR BKN006 OVC012
     FM260000 02012G22KT 1SM -SN BR BKN004 OVC008
      TEMPO 2601/2605 1/2SM SN VV003
     FM260500 36012KT 3SM -SN BR BKN006 OVC012
      TEMPO 2605/2609 1SM -SN BR OVC004
     FM261400 03008KT 1SM -SN BR BKN003 OVC008=

USA.gov is the U.S. government's official web portal to all federal, state and local government web resources and services.